createdAt,value
2023-04-27T00:01:06.362Z,83.35
2023-04-27T00:03:33.073Z,83.19
2023-04-27T00:05:59.974Z,84.49
2023-04-27T00:08:26.742Z,84.26
2023-04-27T00:10:53.218Z,83.93
2023-04-27T00:13:19.720Z,85.36
2023-04-27T00:15:46.284Z,84.26
2023-04-27T00:18:12.792Z,83.83
2023-04-27T00:20:40.109Z,83.80
2023-04-27T00:23:07.152Z,84.49
2023-04-27T00:25:33.679Z,83.13
2023-04-27T00:28:00.245Z,84.62
2023-04-27T00:30:26.723Z,84.09
2023-04-27T00:32:53.243Z,84.65
2023-04-27T00:35:20.125Z,84.55
2023-04-27T00:37:46.674Z,86.55
2023-04-27T00:40:13.309Z,86.55
2023-04-27T00:42:39.784Z,85.89
2023-04-27T00:45:06.955Z,84.82
2023-04-27T00:47:33.531Z,86.60
2023-04-27T00:50:00.832Z,86.72
2023-04-27T00:52:27.282Z,86.11
2023-04-27T00:54:53.752Z,86.41
2023-04-27T00:57:20.606Z,87.89
2023-04-27T00:59:47.399Z,88.00
2023-04-27T01:02:14.118Z,84.63
2023-04-27T01:04:41.445Z,83.59
2023-04-27T01:07:08.139Z,83.09
2023-04-27T01:09:34.845Z,84.39
2023-04-27T01:12:01.597Z,83.37
2023-04-27T01:14:28.059Z,84.26
2023-04-27T01:16:54.672Z,84.07
2023-04-27T01:19:21.159Z,84.37
2023-04-27T01:21:47.608Z,84.82
2023-04-27T01:24:14.128Z,84.87
2023-04-27T01:26:40.580Z,84.30
2023-04-27T01:29:07.096Z,86.61
2023-04-27T01:31:34.054Z,85.81
2023-04-27T01:34:00.603Z,87.34
2023-04-27T01:36:27.778Z,88.30
2023-04-27T01:38:54.264Z,90.68
2023-04-27T01:41:20.830Z,89.62
2023-04-27T01:43:47.325Z,91.64
2023-04-27T01:46:14.646Z,91.81
2023-04-27T01:48:42.032Z,92.59
2023-04-27T01:51:08.677Z,95.07
2023-04-27T01:53:35.220Z,96.46
2023-04-27T01:56:01.815Z,93.92
2023-04-27T01:58:28.598Z,94.07
2023-04-27T02:00:55.178Z,94.63
2023-04-27T02:03:22.140Z,94.36
2023-04-27T02:05:48.851Z,94.60
2023-04-27T02:08:15.381Z,92.82
2023-04-27T02:10:43.421Z,93.17
2023-04-27T02:13:09.971Z,93.16
2023-04-27T02:15:36.651Z,92.81
2023-04-27T02:18:03.893Z,93.81
2023-04-27T02:20:33.597Z,99.42
2023-04-27T02:23:01.009Z,96.07
2023-04-27T02:25:27.933Z,94.80
2023-04-27T02:27:55.120Z,94.55
2023-04-27T02:30:22.368Z,95.45
2023-04-27T02:32:49.687Z,96.35
2023-04-27T02:35:16.245Z,96.29
2023-04-27T02:37:42.756Z,97.86
2023-04-27T02:40:09.958Z,97.98
2023-04-27T02:42:38.907Z,98.90
2023-04-27T02:45:09.020Z,98.62
2023-04-27T02:47:35.706Z,97.16
2023-04-27T02:50:02.790Z,96.38
2023-04-27T02:52:29.274Z,96.25
2023-04-27T02:54:55.742Z,94.80
2023-04-27T02:57:22.239Z,96.32
2023-04-27T02:59:48.780Z,97.03
2023-04-27T03:02:15.674Z,98.25
2023-04-27T03:04:42.317Z,97.66
2023-04-27T03:07:09.009Z,97.77
2023-04-27T03:09:35.598Z,97.56
2023-04-27T03:12:02.609Z,100.00
2023-04-27T03:14:29.188Z,100.00
2023-04-27T03:16:57.329Z,98.45
2023-04-27T03:19:23.959Z,97.83
2023-04-27T03:21:50.737Z,97.63
2023-04-27T03:24:17.268Z,99.50
2023-04-27T03:26:43.780Z,100.00
2023-04-27T03:29:10.254Z,100.00
2023-04-27T03:31:36.921Z,100.00
2023-04-27T03:34:03.509Z,100.00
2023-04-27T03:36:30.005Z,100.00
2023-04-27T03:38:56.566Z,99.75
2023-04-27T03:41:23.038Z,99.26
2023-04-27T03:43:50.855Z,99.13
2023-04-27T03:46:17.403Z,98.79
2023-04-27T03:48:43.985Z,100.00
2023-04-27T03:51:10.500Z,100.00
2023-04-27T03:53:36.981Z,100.00
2023-04-27T03:56:03.750Z,100.00
2023-04-27T03:58:30.238Z,100.00
2023-04-27T04:00:57.297Z,100.00
2023-04-27T04:03:23.970Z,100.00
2023-04-27T04:05:50.615Z,100.00
2023-04-27T04:08:17.135Z,100.00
2023-04-27T04:10:43.635Z,100.00
2023-04-27T04:13:10.247Z,100.00
2023-04-27T04:15:36.703Z,100.00
2023-04-27T04:18:03.392Z,100.00
2023-04-27T04:20:29.911Z,100.00
2023-04-27T04:22:56.332Z,100.00
2023-04-27T04:25:22.864Z,100.00
2023-04-27T04:27:49.418Z,100.00
2023-04-27T04:30:16.549Z,100.00
2023-04-27T04:32:45.013Z,100.00
2023-04-27T04:35:11.926Z,100.00
2023-04-27T04:37:38.698Z,100.00
2023-04-27T04:40:09.880Z,100.00
2023-04-27T04:42:37.692Z,100.00
2023-04-27T04:45:04.766Z,100.00
2023-04-27T04:47:32.349Z,100.00
2023-04-27T04:49:59.040Z,100.00
2023-04-27T04:52:25.622Z,100.00
2023-04-27T04:54:53.220Z,100.00
2023-04-27T04:57:19.902Z,100.00
2023-04-27T04:59:46.387Z,100.00
2023-04-27T05:02:12.886Z,100.00
2023-04-27T05:04:39.418Z,100.00
2023-04-27T05:07:06.840Z,100.00
2023-04-27T05:09:33.378Z,100.00
2023-04-27T05:12:02.014Z,100.00
2023-04-27T05:14:28.574Z,100.00
2023-04-27T05:16:55.140Z,100.00
2023-04-27T05:19:21.751Z,100.00
2023-04-27T05:21:48.528Z,100.00
2023-04-27T05:24:15.057Z,100.00
2023-04-27T05:26:42.828Z,100.00
2023-04-27T05:29:09.406Z,100.00
2023-04-27T05:31:36.295Z,100.00
2023-04-27T05:34:02.860Z,100.00
2023-04-27T05:36:29.358Z,100.00
2023-04-27T05:38:56.231Z,100.00
2023-04-27T05:41:23.775Z,100.00
2023-04-27T05:43:50.272Z,100.00
2023-04-27T05:46:16.966Z,100.00
2023-04-27T05:48:43.544Z,100.00
2023-04-27T05:51:10.140Z,99.91
2023-04-27T05:53:36.670Z,99.14
2023-04-27T05:56:04.603Z,99.84
2023-04-27T05:58:31.295Z,99.61
2023-04-27T06:00:57.832Z,98.26
2023-04-27T06:03:25.056Z,97.29
2023-04-27T06:05:59.663Z,97.77
2023-04-27T06:08:27.049Z,96.83
2023-04-27T06:10:54.092Z,95.95
2023-04-27T06:13:21.124Z,96.11
2023-04-27T06:15:48.016Z,94.60
2023-04-27T06:18:14.588Z,93.87
2023-04-27T06:20:42.009Z,93.53
2023-04-27T06:23:08.848Z,93.65
2023-04-27T06:25:37.508Z,95.04
2023-04-27T06:28:04.257Z,93.49
2023-04-27T06:30:30.893Z,93.18
2023-04-27T06:32:57.335Z,90.66
2023-04-27T06:35:23.795Z,89.89
2023-04-27T06:37:50.290Z,89.60
2023-04-27T06:40:16.943Z,88.73
2023-04-27T06:42:43.485Z,87.91
2023-04-27T06:45:10.683Z,86.95
2023-04-27T06:47:37.159Z,86.86
2023-04-27T06:50:04.282Z,86.00
2023-04-27T06:52:33.182Z,86.65
2023-04-27T06:54:59.762Z,83.95
2023-04-27T06:57:26.428Z,84.25
2023-04-27T06:59:52.883Z,83.79
2023-04-27T07:02:19.572Z,83.43
2023-04-27T07:04:46.612Z,84.81
2023-04-27T07:07:13.381Z,84.17
2023-04-27T07:09:39.810Z,81.65
2023-04-27T07:12:06.658Z,80.63
2023-04-27T07:14:33.913Z,79.08
2023-04-27T07:17:00.471Z,79.05
2023-04-27T07:19:26.995Z,77.80
2023-04-27T07:21:53.744Z,78.64
2023-04-27T07:24:20.640Z,78.45
2023-04-27T07:26:48.096Z,76.48
2023-04-27T07:29:26.613Z,81.08
2023-04-27T07:31:54.576Z,79.49
2023-04-27T07:34:21.229Z,79.33
2023-04-27T07:36:47.663Z,79.21
2023-04-27T07:39:15.024Z,77.54
2023-04-27T07:41:42.109Z,76.47
2023-04-27T07:44:08.618Z,77.68
2023-04-27T07:46:35.154Z,75.75
2023-04-27T07:49:02.425Z,70.83
2023-04-27T07:51:28.985Z,69.74
2023-04-27T07:53:56.338Z,68.97
2023-04-27T07:56:22.822Z,73.74
2023-04-27T07:58:49.312Z,70.89
2023-04-27T08:01:15.844Z,69.97
2023-04-27T08:03:42.414Z,66.99
2023-04-27T08:06:09.618Z,66.59
2023-04-27T08:08:36.346Z,66.50
2023-04-27T08:11:03.110Z,66.42
2023-04-27T08:13:29.702Z,66.00
2023-04-27T08:15:59.306Z,63.67
2023-04-27T08:18:26.348Z,61.27
2023-04-27T08:20:53.340Z,59.94
2023-04-27T08:23:20.102Z,57.02
2023-04-27T08:25:47.152Z,54.49
2023-04-27T08:28:15.125Z,55.46
2023-04-27T08:30:42.856Z,53.33
2023-04-27T08:33:09.530Z,53.34
2023-04-27T08:35:36.107Z,51.75
2023-04-27T08:38:02.714Z,52.61
2023-04-27T08:40:29.533Z,48.99
2023-04-27T08:42:58.298Z,48.01
2023-04-27T08:45:26.377Z,46.81
2023-04-27T08:47:53.957Z,48.89
2023-04-27T08:50:20.496Z,46.20
2023-04-27T08:52:48.032Z,47.53
2023-04-27T08:55:16.737Z,44.28
2023-04-27T08:57:54.146Z,41.15
2023-04-27T09:00:21.041Z,40.34
2023-04-27T09:02:48.752Z,41.95
2023-04-27T09:05:24.790Z,41.03
2023-04-27T09:07:59.184Z,39.74
2023-04-27T09:10:25.768Z,39.70
2023-04-27T09:13:00.970Z,39.15
2023-04-27T09:15:28.772Z,39.10
2023-04-27T09:17:57.071Z,38.07
2023-04-27T09:20:24.368Z,35.28
2023-04-27T09:22:58.355Z,36.58
2023-04-27T09:25:31.377Z,35.61
2023-04-27T09:28:00.033Z,34.88
2023-04-27T09:30:28.023Z,35.80
2023-04-27T09:33:01.619Z,34.81
2023-04-27T09:35:31.424Z,35.05
2023-04-27T09:37:58.554Z,34.79
2023-04-27T09:40:28.198Z,34.69
2023-04-27T09:42:56.906Z,34.73
2023-04-27T09:45:25.329Z,34.82
2023-04-27T09:47:52.869Z,34.46
2023-04-27T09:50:19.889Z,34.52
2023-04-27T09:52:47.098Z,35.61
2023-04-27T09:55:19.966Z,36.00
2023-04-27T09:57:55.730Z,35.78
2023-04-27T10:00:39.471Z,36.63
2023-04-27T10:03:25.531Z,34.84
2023-04-27T10:06:29.503Z,32.50
2023-04-27T10:08:57.131Z,31.13
2023-04-27T10:11:38.562Z,30.66
2023-04-27T10:14:09.552Z,29.80
2023-04-27T10:16:57.175Z,28.33
2023-04-27T10:19:24.990Z,29.89
2023-04-27T10:22:07.982Z,29.36
2023-04-27T10:24:36.185Z,31.38
2023-04-27T10:27:05.853Z,31.08
2023-04-27T10:29:36.982Z,29.64
2023-04-27T10:32:08.948Z,26.76
2023-04-27T10:34:39.430Z,25.15
2023-04-27T10:37:11.017Z,25.17
2023-04-27T10:39:48.610Z,27.52
2023-04-27T10:42:28.415Z,26.96
2023-04-27T10:44:57.774Z,25.39
2023-04-27T10:47:24.839Z,26.72
2023-04-27T10:49:54.365Z,26.65
2023-04-27T10:52:21.027Z,26.02
2023-04-27T10:54:47.726Z,27.13
2023-04-27T10:57:14.312Z,27.85
2023-04-27T10:59:51.833Z,26.53
2023-04-27T11:02:26.553Z,26.96
2023-04-27T11:04:53.192Z,26.47
2023-04-27T11:07:27.725Z,26.87
2023-04-27T11:09:55.335Z,28.19
2023-04-27T11:12:22.351Z,27.38
2023-04-27T11:14:48.960Z,29.13
2023-04-27T11:17:15.473Z,29.55
2023-04-27T11:19:47.035Z,29.66
2023-04-27T11:22:16.896Z,26.75
2023-04-27T11:24:50.430Z,25.27
2023-04-27T11:27:17.999Z,25.44
2023-04-27T11:29:44.904Z,24.32
2023-04-27T11:32:21.779Z,24.84
2023-04-27T11:34:53.773Z,26.34
2023-04-27T11:37:24.841Z,25.39
2023-04-27T11:39:52.432Z,25.55
2023-04-27T11:42:24.160Z,24.56
2023-04-27T11:45:01.085Z,27.46
2023-04-27T11:47:30.110Z,24.99
2023-04-27T11:50:00.610Z,23.74
2023-04-27T11:52:34.279Z,25.42
2023-04-27T11:55:02.131Z,25.73
2023-04-27T11:57:31.314Z,24.24
2023-04-27T12:00:00.426Z,25.09
2023-04-27T12:02:28.638Z,25.28
2023-04-27T12:04:55.624Z,26.53
2023-04-27T12:07:22.231Z,26.62
2023-04-27T12:09:48.792Z,26.76
2023-04-27T12:12:18.320Z,26.27
2023-04-27T12:14:46.001Z,26.43
2023-04-27T12:17:12.794Z,27.61
2023-04-27T12:19:39.408Z,26.00
2023-04-27T12:22:06.153Z,26.38
2023-04-27T12:24:32.709Z,26.57
2023-04-27T12:26:59.709Z,26.88
2023-04-27T12:29:26.177Z,25.57
2023-04-27T12:31:53.290Z,26.19
2023-04-27T12:34:20.187Z,25.46
2023-04-27T12:36:47.136Z,27.80
2023-04-27T12:39:16.095Z,27.57
2023-04-27T12:41:50.396Z,29.15
2023-04-27T12:44:18.941Z,30.08
2023-04-27T12:46:48.235Z,27.96
2023-04-27T12:49:15.571Z,27.19
2023-04-27T12:51:42.407Z,27.17
2023-04-27T12:54:10.613Z,30.91
2023-04-27T12:56:37.154Z,30.37
2023-04-27T12:59:04.057Z,28.53
2023-04-27T13:01:31.501Z,28.28
2023-04-27T13:04:05.961Z,29.62
2023-04-27T13:06:32.759Z,28.51
2023-04-27T13:08:59.760Z,27.92
2023-04-27T13:11:27.141Z,27.31
2023-04-27T13:13:54.902Z,28.16
2023-04-27T13:16:22.771Z,30.77
2023-04-27T13:18:51.991Z,27.42
2023-04-27T13:21:18.949Z,27.57
2023-04-27T13:23:45.424Z,28.35
2023-04-27T13:26:11.936Z,28.34
2023-04-27T13:28:38.441Z,26.38
2023-04-27T13:31:06.027Z,26.67
2023-04-27T13:33:34.490Z,27.13
2023-04-27T13:36:02.459Z,28.15
2023-04-27T13:38:29.050Z,26.69
2023-04-27T13:40:55.510Z,26.62
2023-04-27T13:43:22.272Z,25.67
2023-04-27T13:45:50.777Z,28.36
2023-04-27T13:48:17.342Z,28.30
2023-04-27T13:50:43.888Z,27.86
2023-04-27T13:53:10.412Z,29.55
2023-04-27T13:55:37.217Z,30.08
2023-04-27T13:58:04.005Z,28.85
2023-04-27T14:00:34.714Z,28.83
2023-04-27T14:03:01.675Z,28.83
2023-04-27T14:05:28.742Z,29.90
2023-04-27T14:07:55.366Z,29.13
2023-04-27T14:10:22.666Z,29.54
2023-04-27T14:12:49.281Z,31.18
2023-04-27T14:15:15.932Z,28.53
2023-04-27T14:17:42.660Z,30.73
2023-04-27T14:20:09.245Z,30.02
2023-04-27T14:22:36.971Z,31.16
2023-04-27T14:25:03.607Z,31.53
2023-04-27T14:27:30.102Z,29.67
2023-04-27T14:29:56.620Z,29.79
2023-04-27T14:32:23.461Z,30.50
2023-04-27T14:34:50.105Z,31.86
2023-04-27T14:37:16.708Z,32.67
2023-04-27T14:39:45.259Z,31.45
2023-04-27T14:42:12.104Z,31.46
2023-04-27T14:44:38.657Z,30.79
2023-04-27T14:47:06.403Z,30.75
2023-04-27T14:49:32.975Z,30.12
2023-04-27T14:52:03.178Z,29.47
2023-04-27T14:54:29.665Z,29.21
2023-04-27T14:56:58.160Z,30.65
2023-04-27T14:59:25.395Z,30.39
2023-04-27T15:01:52.250Z,30.77
2023-04-27T15:04:20.104Z,31.11
2023-04-27T15:06:47.015Z,30.53
2023-04-27T15:09:13.672Z,30.18
2023-04-27T15:11:40.492Z,31.12
2023-04-27T15:14:08.479Z,31.88
2023-04-27T15:16:35.048Z,32.27
2023-04-27T15:19:01.618Z,33.34
2023-04-27T15:21:28.119Z,32.47
2023-04-27T15:23:54.620Z,32.88
2023-04-27T15:26:21.392Z,32.25
2023-04-27T15:28:47.980Z,32.67
2023-04-27T15:31:14.510Z,32.98
2023-04-27T15:33:41.182Z,33.19
2023-04-27T15:36:07.843Z,33.60
2023-04-27T15:38:34.340Z,33.10
2023-04-27T15:41:00.950Z,33.46
2023-04-27T15:43:27.423Z,35.84
2023-04-27T15:45:54.008Z,35.28
2023-04-27T15:48:20.650Z,34.92
2023-04-27T15:50:47.160Z,33.83
2023-04-27T15:53:13.679Z,34.86
2023-04-27T15:55:40.649Z,33.65
2023-04-27T15:58:07.101Z,34.48
2023-04-27T16:00:35.099Z,34.05
2023-04-27T16:03:01.828Z,34.92
2023-04-27T16:05:28.586Z,34.12
2023-04-27T16:07:55.056Z,34.62
2023-04-27T16:10:21.912Z,35.11
2023-04-27T16:12:48.399Z,35.91
2023-04-27T16:15:15.015Z,35.23
2023-04-27T16:17:41.728Z,35.98
2023-04-27T16:20:09.423Z,36.21
2023-04-27T16:22:37.012Z,35.82
2023-04-27T16:25:06.562Z,35.89
2023-04-27T16:27:33.519Z,37.29
2023-04-27T16:30:00.083Z,36.22
2023-04-27T16:32:26.937Z,35.68
2023-04-27T16:34:53.797Z,37.52
2023-04-27T16:37:20.431Z,37.80
2023-04-27T16:39:46.971Z,37.09
2023-04-27T16:42:18.571Z,36.80
2023-04-27T16:44:45.208Z,37.07
2023-04-27T16:47:12.064Z,37.69
2023-04-27T16:49:38.651Z,37.89
2023-04-27T16:52:05.404Z,36.26
2023-04-27T16:54:31.944Z,36.22
2023-04-27T16:56:58.503Z,36.72
2023-04-27T16:59:25.076Z,37.09
2023-04-27T17:01:52.117Z,39.30
2023-04-27T17:04:18.782Z,38.07
2023-04-27T17:06:48.500Z,37.49
2023-04-27T17:09:15.309Z,36.47
2023-04-27T17:11:42.214Z,37.46
2023-04-27T17:14:08.798Z,38.34
2023-04-27T17:16:35.300Z,39.07
2023-04-27T17:19:02.207Z,38.51
2023-04-27T17:21:28.801Z,38.06
2023-04-27T17:23:55.634Z,37.87
2023-04-27T17:26:22.700Z,37.54
2023-04-27T17:28:49.547Z,38.43
2023-04-27T17:31:17.517Z,39.85
2023-04-27T17:33:44.107Z,40.28
2023-04-27T17:36:11.273Z,40.27
2023-04-27T17:38:37.844Z,41.09
2023-04-27T17:41:04.398Z,42.73
2023-04-27T17:43:30.884Z,42.00
2023-04-27T17:45:57.376Z,42.46
2023-04-27T17:48:24.479Z,40.22
2023-04-27T17:50:51.153Z,42.05
2023-04-27T17:53:17.687Z,42.97
2023-04-27T17:55:45.537Z,44.50
2023-04-27T17:58:12.245Z,45.46
2023-04-27T18:00:39.124Z,47.33
2023-04-27T18:03:05.832Z,44.49
2023-04-27T18:05:32.653Z,44.47
2023-04-27T18:07:59.154Z,45.51
2023-04-27T18:10:25.699Z,44.07
2023-04-27T18:12:52.132Z,42.52
2023-04-27T18:15:19.609Z,41.83
2023-04-27T18:17:46.160Z,41.10
2023-04-27T18:20:12.796Z,41.04
2023-04-27T18:22:40.176Z,41.64
2023-04-27T18:25:10.442Z,43.16
2023-04-27T18:27:39.446Z,43.13
2023-04-27T18:30:07.777Z,43.56
2023-04-27T18:32:34.823Z,43.35
2023-04-27T18:35:02.324Z,43.75
2023-04-27T18:37:29.227Z,44.25
2023-04-27T18:39:55.707Z,44.43
2023-04-27T18:42:23.611Z,45.09
2023-04-27T18:44:54.752Z,45.74
2023-04-27T18:47:21.444Z,46.41
2023-04-27T18:49:48.251Z,46.68
2023-04-27T18:52:14.812Z,46.72
2023-04-27T18:54:42.153Z,47.73
2023-04-27T18:57:08.684Z,46.94
2023-04-27T18:59:37.655Z,46.93
2023-04-27T19:02:04.146Z,47.32
2023-04-27T19:04:30.778Z,47.36
2023-04-27T19:06:57.273Z,47.65
2023-04-27T19:09:23.841Z,47.70
2023-04-27T19:12:00.044Z,47.92
2023-04-27T19:14:30.811Z,48.30
2023-04-27T19:16:57.340Z,48.35
2023-04-27T19:19:26.435Z,48.74
2023-04-27T19:21:53.343Z,49.28
2023-04-27T19:24:19.864Z,49.34
2023-04-27T19:26:48.387Z,49.61
2023-04-27T19:29:15.383Z,51.10
2023-04-27T19:31:42.595Z,50.87
2023-04-27T19:34:09.256Z,50.47
2023-04-27T19:36:35.814Z,51.30
2023-04-27T19:39:02.276Z,52.67
2023-04-27T19:41:28.828Z,52.52
2023-04-27T19:43:55.496Z,54.47
2023-04-27T19:46:22.062Z,54.11
2023-04-27T19:48:49.706Z,54.10
2023-04-27T19:51:16.537Z,54.94
2023-04-27T19:53:43.023Z,55.36
2023-04-27T19:56:09.540Z,55.75
2023-04-27T19:58:37.119Z,58.60
2023-04-27T20:01:04.086Z,58.91
2023-04-27T20:03:30.881Z,58.94
2023-04-27T20:05:57.723Z,58.71
2023-04-27T20:08:24.980Z,57.50
2023-04-27T20:10:51.548Z,56.54
2023-04-27T20:13:18.074Z,58.00
2023-04-27T20:15:44.682Z,57.01
2023-04-27T20:18:11.344Z,56.51
2023-04-27T20:20:37.947Z,55.96
2023-04-27T20:23:04.455Z,56.07
2023-04-27T20:25:31.011Z,56.68
2023-04-27T20:27:57.465Z,56.68
2023-04-27T20:30:24.054Z,57.77
2023-04-27T20:32:50.670Z,57.94
2023-04-27T20:35:17.496Z,57.60
2023-04-27T20:37:44.249Z,58.49
2023-04-27T20:40:14.445Z,58.71
2023-04-27T20:42:42.531Z,59.45
2023-04-27T20:45:11.409Z,60.19
2023-04-27T20:47:38.235Z,60.17
2023-04-27T20:50:06.306Z,60.26
2023-04-27T20:52:34.575Z,61.72
2023-04-27T20:55:01.587Z,61.87
2023-04-27T20:57:28.097Z,62.21
2023-04-27T20:59:55.150Z,62.16
2023-04-27T21:02:21.657Z,61.47
2023-04-27T21:04:48.247Z,61.42
2023-04-27T21:07:14.855Z,61.87
2023-04-27T21:09:41.635Z,61.73
2023-04-27T21:12:08.747Z,61.96
2023-04-27T21:14:35.295Z,61.81
2023-04-27T21:17:01.892Z,61.55
2023-04-27T21:19:28.385Z,61.27
2023-04-27T21:21:54.848Z,61.44
2023-04-27T21:24:21.532Z,61.14
2023-04-27T21:26:48.193Z,61.66
2023-04-27T21:29:14.667Z,62.22
2023-04-27T21:31:41.280Z,62.03
2023-04-27T21:34:08.198Z,62.65
2023-04-27T21:36:34.837Z,62.85
2023-04-27T21:39:01.330Z,63.19
2023-04-27T21:41:27.808Z,62.76
2023-04-27T21:43:54.365Z,62.92
2023-04-27T21:46:23.019Z,64.03
2023-04-27T21:48:49.580Z,64.76
2023-04-27T21:51:16.088Z,64.90
2023-04-27T21:53:42.558Z,65.25
2023-04-27T21:56:09.000Z,65.22
2023-04-27T21:58:35.438Z,67.15
2023-04-27T22:01:02.325Z,65.92
2023-04-27T22:03:29.010Z,67.03
2023-04-27T22:05:57.551Z,67.48
2023-04-27T22:08:24.149Z,66.27
2023-04-27T22:10:50.895Z,66.14
2023-04-27T22:13:19.402Z,66.54
2023-04-27T22:15:46.555Z,67.14
2023-04-27T22:18:14.390Z,66.92
2023-04-27T22:20:41.556Z,66.43
2023-04-27T22:23:09.234Z,67.62
2023-04-27T22:25:35.763Z,67.00
2023-04-27T22:28:02.283Z,66.90
2023-04-27T22:30:29.459Z,67.56
2023-04-27T22:32:56.818Z,67.88
2023-04-27T22:35:27.044Z,67.84
2023-04-27T22:37:58.942Z,67.99
2023-04-27T22:40:25.665Z,69.54
2023-04-27T22:42:53.181Z,69.03
2023-04-27T22:45:19.682Z,69.11
2023-04-27T22:47:46.329Z,70.37
2023-04-27T22:50:13.557Z,69.31
2023-04-27T22:52:42.260Z,69.10
2023-04-27T22:55:10.443Z,68.86
2023-04-27T22:57:37.330Z,68.45
2023-04-27T23:00:11.837Z,68.66
2023-04-27T23:02:42.831Z,70.00
2023-04-27T23:05:11.028Z,69.35
2023-04-27T23:07:37.872Z,68.19
2023-04-27T23:10:05.840Z,68.84
2023-04-27T23:12:32.480Z,68.26
2023-04-27T23:14:59.326Z,69.01
2023-04-27T23:17:30.592Z,68.52
2023-04-27T23:20:01.934Z,69.30
2023-04-27T23:22:29.457Z,70.04
2023-04-27T23:24:56.260Z,69.47
2023-04-27T23:27:24.674Z,70.23
2023-04-27T23:29:51.336Z,70.68
2023-04-27T23:32:17.908Z,70.20
2023-04-27T23:34:44.475Z,70.37
2023-04-27T23:37:11.200Z,70.53
2023-04-27T23:39:38.290Z,70.38
2023-04-27T23:42:04.834Z,71.12
2023-04-27T23:44:31.378Z,69.74
2023-04-27T23:46:58.398Z,69.62
2023-04-27T23:49:24.851Z,70.33
2023-04-27T23:51:52.430Z,70.29
2023-04-27T23:54:19.085Z,70.42
2023-04-27T23:56:45.567Z,70.28
2023-04-27T23:59:12.101Z,70.22
